Time;durP1;ratioP1;P1;durP2;ratioP2;P2;SDS_P1;SDS_P2;PMS_P1;PMS_P2;Temp;Humidity;BMP_temperature;BMP_pressure;BME280_temperature;BME280_humidity;BME280_pressure;Samples;Min_cycle;Max_cycle;Signal;HPM_P1;HPM_P2
2022/09/02 00:01:18;;;;;;;8.50;6.18;;;;;;;15.40;62.86;99172.91;5287506;28;20145;-67
2022/09/02 00:04:12;;;;;;;7.07;5.90;;;;;;;15.42;61.96;99173.53;5256336;28;20093;-67
2022/09/02 00:07:03;;;;;;;8.18;6.57;;;;;;;15.35;62.46;99174.41;5272627;28;20120;-67
2022/09/02 00:09:53;;;;;;;9.35;6.10;;;;;;;15.31;62.25;99171.25;5287750;28;20116;-67
2022/09/02 00:12:44;;;;;;;7.53;5.85;;;;;;;15.26;62.19;99168.22;5287774;28;20058;-67
2022/09/02 00:15:34;;;;;;;7.18;6.13;;;;;;;15.14;62.90;99165.09;5287877;28;20544;-67
2022/09/02 00:18:26;;;;;;;7.82;6.00;;;;;;;15.05;62.93;99174.13;5272208;28;20296;-67
2022/09/02 00:21:18;;;;;;;8.48;6.30;;;;;;;15.15;62.75;99165.94;5272760;28;20078;-67
2022/09/02 00:24:10;;;;;;;10.15;6.65;;;;;;;14.98;64.15;99163.28;5286388;28;20059;-67
2022/09/02 00:27:02;;;;;;;13.68;6.20;;;;;;;15.08;62.42;99157.75;5272517;28;20307;-67
2022/09/02 00:29:53;;;;;;;9.15;6.47;;;;;;;14.94;62.92;99153.94;5271968;28;20288;-67
2022/09/02 00:32:43;;;;;;;8.00;5.93;;;;;;;14.97;63.46;99160.78;5271302;28;20050;-67
2022/09/02 00:35:38;;;;;;;7.90;6.20;;;;;;;14.82;63.17;99143.75;5287927;28;20048;-67
2022/09/02 00:38:34;;;;;;;6.47;5.53;;;;;;;14.98;63.93;99141.91;5287190;28;20051;-67
2022/09/02 00:41:31;;;;;;;8.18;6.43;;;;;;;14.96;63.67;99143.91;5271856;28;20058;-67
2022/09/02 00:44:21;;;;;;;6.93;5.65;;;;;;;14.94;63.60;99145.94;5271408;28;20140;-67
2022/09/02 00:47:14;;;;;;;8.65;6.28;;;;;;;15.02;63.42;99148.56;5271080;28;20094;-67
2022/09/02 00:50:10;;;;;;;7.35;6.15;;;;;;;15.01;63.68;99141.56;5265013;28;20583;-67
2022/09/02 00:53:10;;;;;;;10.65;6.70;;;;;;;15.07;63.62;99132.06;5241940;28;20048;-67
2022/09/02 00:56:02;;;;;;;8.05;6.38;;;;;;;15.12;63.52;99132.38;5271644;28;20051;-66
2022/09/02 00:58:55;;;;;;;7.10;5.93;;;;;;;15.17;62.79;99134.56;5271458;28;20520;-66
2022/09/02 01:01:46;;;;;;;9.07;6.47;;;;;;;14.95;63.02;99136.06;5286827;28;20508;-67
2022/09/02 01:04:37;;;;;;;7.72;5.93;;;;;;;14.77;63.70;99138.94;5270801;28;20044;-67
2022/09/02 01:07:33;;;;;;;7.05;5.88;;;;;;;14.84;63.63;99149.78;5262059;28;20130;-66
2022/09/02 01:10:27;;;;;;;10.40;6.00;;;;;;;14.80;63.69;99146.56;5271650;28;20131;-66
2022/09/02 01:13:23;;;;;;;6.75;5.70;;;;;;;14.78;63.75;99151.25;5271129;28;20048;-66
2022/09/02 01:16:28;;;;;;;8.80;6.22;;;;;;;14.65;63.85;99149.09;5286539;28;20078;-66
2022/09/02 01:19:24;;;;;;;9.57;5.82;;;;;;;14.63;64.20;99150.25;5271523;28;20058;-66
2022/09/02 01:22:29;;;;;;;6.97;5.68;;;;;;;14.70;63.75;99152.09;5284801;28;20054;-66
2022/09/02 01:25:23;;;;;;;7.65;5.85;;;;;;;14.57;63.21;99144.59;5286825;28;20077;-66
2022/09/02 01:28:16;;;;;;;6.60;5.50;;;;;;;14.53;63.63;99140.56;5270492;28;20070;-66
2022/09/02 01:31:06;;;;;;;7.30;5.75;;;;;;;14.71;63.50;99139.59;5270826;28;20066;-66
2022/09/02 01:33:57;;;;;;;10.00;5.80;;;;;;;14.75;63.50;99140.91;5270927;28;20089;-66
2022/09/02 01:36:48;;;;;;;9.82;5.78;;;;;;;14.91;63.65;99134.75;5270749;28;20055;-66
2022/09/02 01:39:39;;;;;;;8.20;5.88;;;;;;;15.19;62.30;99133.34;5285550;28;20513;-67
2022/09/02 01:42:29;;;;;;;8.30;6.20;;;;;;;15.03;63.17;99139.59;5285588;28;20094;-66
2022/09/02 01:45:19;;;;;;;7.80;6.13;;;;;;;15.09;63.05;99131.88;5262578;28;20493;-66
2022/09/02 01:48:12;;;;;;;8.73;6.07;;;;;;;14.95;63.66;99138.75;5265987;28;20074;-66
2022/09/02 01:51:06;;;;;;;7.00;5.55;;;;;;;14.67;64.08;99138.22;5266090;28;20048;-66
2022/09/02 01:53:56;;;;;;;10.00;5.93;;;;;;;14.57;63.76;99133.91;5256171;28;20294;-67
2022/09/02 01:56:47;;;;;;;7.78;5.97;;;;;;;14.70;63.80;99132.56;5270264;28;20101;-67
2022/09/02 01:59:38;;;;;;;8.63;5.60;;;;;;;14.43;63.64;99125.69;5269982;28;20050;-67
2022/09/02 02:02:28;;;;;;;7.47;5.60;;;;;;;14.38;63.95;99136.88;5285478;28;20516;-67
2022/09/02 02:05:19;;;;;;;7.32;5.38;;;;;;;14.33;63.51;99136.50;5270510;28;20105;-67
2022/09/02 02:08:12;;;;;;;6.38;5.38;;;;;;;14.30;63.00;99134.16;5269683;28;20184;-67
2022/09/02 02:11:04;;;;;;;9.20;5.53;;;;;;;14.37;64.15;99131.69;5285449;28;20052;-67
2022/09/02 02:13:56;;;;;;;7.03;5.57;;;;;;;14.46;63.16;99136.03;5270535;28;20043;-67
2022/09/02 02:16:47;;;;;;;6.93;5.63;;;;;;;14.28;63.11;99112.19;5270036;28;20052;-66
2022/09/02 02:19:37;;;;;;;10.02;5.70;;;;;;;14.42;63.67;99138.19;5286006;28;20052;-67
2022/09/02 02:22:28;;;;;;;10.20;5.22;;;;;;;14.21;63.84;99135.19;5284998;28;20109;-67
2022/09/02 02:25:18;;;;;;;8.27;5.13;;;;;;;14.20;64.54;99146.81;5286003;28;20058;-67
2022/09/02 02:28:13;;;;;;;7.38;5.80;;;;;;;14.07;64.39;99144.63;5282139;28;20048;-67
2022/09/02 02:31:04;;;;;;;5.90;4.80;;;;;;;13.92;64.86;99127.59;5271940;28;20345;-67
2022/09/02 02:33:55;;;;;;;6.22;5.05;;;;;;;13.87;64.81;99130.72;5279709;28;20048;-67
2022/09/02 02:36:45;;;;;;;6.93;5.47;;;;;;;14.03;64.21;99138.78;5285495;28;20317;-67
2022/09/02 02:39:35;;;;;;;10.70;5.40;;;;;;;14.10;64.88;99137.16;5270004;28;20054;-67
2022/09/02 02:42:26;;;;;;;6.78;5.82;;;;;;;14.29;63.86;99108.50;5283309;28;20059;-67
2022/09/02 02:45:16;;;;;;;7.72;5.57;;;;;;;14.13;64.40;99127.97;5269954;28;20066;-67
2022/09/02 02:48:07;;;;;;;7.32;5.93;;;;;;;14.03;64.74;99136.09;5284325;28;20054;-67
2022/09/02 02:50:58;;;;;;;11.48;5.93;;;;;;;13.94;64.61;99131.78;5269709;28;20132;-67
2022/09/02 02:53:49;;;;;;;5.93;4.97;;;;;;;13.77;65.02;99130.03;5269787;28;20047;-67
2022/09/02 02:56:41;;;;;;;6.72;5.07;;;;;;;13.72;65.24;99132.34;5269817;28;20131;-66
2022/09/02 02:59:31;;;;;;;7.32;5.00;;;;;;;13.82;64.68;99133.88;5284467;28;20051;-66
2022/09/02 03:02:22;;;;;;;7.32;5.93;;;;;;;13.65;65.42;99126.84;5269528;28;20074;-66
2022/09/02 03:05:13;;;;;;;9.32;5.25;;;;;;;13.88;64.95;99135.09;5255954;28;20047;-66
2022/09/02 03:08:07;;;;;;;7.03;5.72;;;;;;;13.81;65.01;99131.41;5283882;28;20509;-67
2022/09/02 03:10:58;;;;;;;7.63;5.00;;;;;;;13.77;64.67;99132.69;5285482;28;20043;-67
2022/09/02 03:13:51;;;;;;;6.88;5.55;;;;;;;13.57;65.86;99124.94;5273706;28;20061;-67
2022/09/02 03:16:42;;;;;;;7.88;5.22;;;;;;;13.42;65.46;99110.56;5260079;28;20118;-66
2022/09/02 03:19:32;;;;;;;11.35;5.13;;;;;;;13.45;64.55;99122.75;5289303;28;20097;-66
2022/09/02 03:22:23;;;;;;;8.48;5.20;;;;;;;13.30;65.65;99101.19;5288191;28;20048;-67
2022/09/02 03:25:16;;;;;;;7.80;5.25;;;;;;;13.59;65.02;99122.97;5273596;28;20044;-66
2022/09/02 03:28:07;;;;;;;6.00;5.30;;;;;;;13.65;65.55;99131.31;5288368;28;20085;-66
2022/09/02 03:30:57;;;;;;;7.07;5.53;;;;;;;13.70;65.18;99134.34;5287471;28;20051;-66
2022/09/02 03:33:49;;;;;;;8.18;5.43;;;;;;;13.56;65.33;99133.94;5272983;28;20043;-66
2022/09/02 03:36:43;;;;;;;8.07;5.88;;;;;;;13.68;64.53;99131.84;5289060;28;20449;-67
2022/09/02 03:39:39;;;;;;;10.85;6.43;;;;;;;13.66;64.67;99127.66;5273325;28;20078;-67
2022/09/02 03:42:30;;;;;;;8.43;6.00;;;;;;;13.38;64.50;99130.53;5292945;27;20054;-67
2022/09/02 03:45:20;;;;;;;7.88;5.82;;;;;;;13.39;64.79;99132.19;5273397;28;20203;-66
2022/09/02 03:48:13;;;;;;;8.20;5.80;;;;;;;13.38;64.63;99123.38;5272934;28;20059;-66
2022/09/02 03:51:04;;;;;;;5.85;5.13;;;;;;;13.39;64.58;99117.03;5272546;28;20055;-66
2022/09/02 03:53:55;;;;;;;9.27;5.88;;;;;;;13.39;64.50;99124.22;5270737;28;20152;-66
2022/09/02 03:56:46;;;;;;;8.07;5.35;;;;;;;13.16;65.37;99126.53;5272490;28;20044;-66
2022/09/02 03:59:37;;;;;;;10.20;5.43;;;;;;;13.11;65.85;99120.84;5264556;28;20043;-66
2022/09/02 04:02:28;;;;;;;6.70;5.60;;;;;;;13.02;65.38;99124.47;5272288;28;20043;-66
2022/09/02 04:05:18;;;;;;;8.32;5.53;;;;;;;13.00;65.14;99121.94;5287965;28;20188;-66
2022/09/02 04:08:10;;;;;;;10.52;5.97;;;;;;;12.82;65.76;99111.34;5272624;28;20059;-66
2022/09/02 04:11:08;;;;;;;6.10;5.47;;;;;;;12.81;65.99;99103.50;5273146;28;20145;-68
2022/09/02 04:13:59;;;;;;;11.25;5.70;;;;;;;13.06;66.36;99123.16;5286615;28;20173;-66
2022/09/02 04:16:50;;;;;;;9.00;5.75;;;;;;;13.06;66.07;99117.81;5286926;28;20089;-66
2022/09/02 04:19:41;;;;;;;7.45;5.65;;;;;;;12.99;65.63;99125.59;5258432;28;20515;-66
2022/09/02 04:22:33;;;;;;;7.97;5.68;;;;;;;12.82;65.75;99114.00;5271803;28;20051;-66
2022/09/02 04:25:23;;;;;;;6.43;5.45;;;;;;;12.79;66.00;99105.50;5287018;28;20066;-66
2022/09/02 04:28:17;;;;;;;7.33;5.60;;;;;;;12.94;66.10;99122.56;5271759;28;20067;-66
2022/09/02 04:31:13;;;;;;;7.82;6.05;;;;;;;12.81;66.26;99112.31;5280219;27;20281;-66
2022/09/02 04:34:03;;;;;;;9.82;5.90;;;;;;;12.86;65.75;99122.50;5289439;27;20044;-66
2022/09/02 04:36:53;;;;;;;7.93;5.97;;;;;;;12.84;65.58;99121.81;5287717;28;20055;-66
2022/09/02 04:39:43;;;;;;;7.38;5.55;;;;;;;13.03;65.99;99113.66;5287527;28;20529;-66
2022/09/02 04:42:34;;;;;;;9.23;5.63;;;;;;;13.01;65.90;99115.63;5271424;28;20408;-66
2022/09/02 04:45:25;;;;;;;7.88;5.90;;;;;;;13.01;65.76;99115.63;5272053;28;20134;-66
2022/09/02 04:48:21;;;;;;;9.20;6.57;;;;;;;13.06;65.75;99112.50;5256343;28;20052;-66
2022/09/02 04:51:16;;;;;;;10.60;6.28;;;;;;;12.97;66.50;99113.44;5271515;28;20052;-66
2022/09/02 04:54:08;;;;;;;8.60;6.45;;;;;;;13.00;66.00;99105.97;5272173;28;20090;-66
2022/09/02 04:57:00;;;;;;;7.53;5.93;;;;;;;13.00;65.83;99116.63;5286054;28;20058;-66
2022/09/02 04:59:51;;;;;;;7.53;6.30;;;;;;;13.01;66.05;99112.94;5271746;28;20078;-67
2022/09/02 05:02:42;;;;;;;7.70;6.10;;;;;;;12.80;65.61;99105.34;5271611;28;20043;-67
2022/09/02 05:05:34;;;;;;;7.50;5.80;;;;;;;12.89;65.99;99119.53;5279723;27;20503;-66
2022/09/02 05:08:24;;;;;;;8.65;5.80;;;;;;;12.69;66.59;99116.22;5294919;27;20524;-67
2022/09/02 05:11:18;;;;;;;7.70;6.05;;;;;;;12.72;66.74;99117.75;5255604;28;20127;-66
2022/09/02 05:14:11;;;;;;;7.28;5.65;;;;;;;12.54;67.55;99104.47;5272049;28;20075;-66
2022/09/02 05:17:03;;;;;;;9.13;6.15;;;;;;;12.71;67.24;99108.91;5287309;28;20074;-66
2022/09/02 05:20:04;;;;;;;7.85;6.03;;;;;;;12.75;67.14;99107.63;5258419;28;20504;-66
2022/09/02 05:22:56;;;;;;;10.90;6.15;;;;;;;12.77;66.09;99124.25;5285549;28;20489;-66
2022/09/02 05:25:46;;;;;;;7.70;6.22;;;;;;;12.77;66.72;99121.59;5286979;27;20066;-66
2022/09/02 05:28:40;;;;;;;6.53;5.68;;;;;;;12.81;65.67;99117.63;5273499;28;20054;-68
2022/09/02 05:31:30;;;;;;;9.02;5.90;;;;;;;12.84;66.91;99117.31;5291913;27;20123;-67
2022/09/02 05:34:22;;;;;;;6.07;5.47;;;;;;;12.89;66.78;99116.88;5277454;27;20051;-67
2022/09/02 05:37:15;;;;;;;6.65;5.55;;;;;;;12.93;66.05;99129.72;5276901;27;20504;-67
2022/09/02 05:40:06;;;;;;;7.75;5.72;;;;;;;12.88;65.91;99110.72;5280835;27;20430;-66
2022/09/02 05:42:59;;;;;;;6.97;5.43;;;;;;;12.97;66.38;99119.59;5279168;27;20062;-67
2022/09/02 05:45:49;;;;;;;9.02;5.78;;;;;;;13.05;66.67;99124.97;5292286;27;20304;-66
2022/09/02 05:51:53;;;;;;;13.77;7.22;;;;;;;13.23;68.32;99118.75;5275616;27;20043;-68
2022/09/02 05:54:48;;;;;;;17.13;8.40;;;;;;;13.62;69.70;99122.66;5294470;27;20517;-67
2022/09/02 05:57:42;;;;;;;16.88;8.98;;;;;;;13.74;68.98;99114.34;5280353;27;20107;-67
2022/09/02 06:00:33;;;;;;;12.80;8.80;;;;;;;13.98;68.73;99125.13;5276954;27;20562;-66
2022/09/02 06:03:23;;;;;;;14.70;8.70;;;;;;;13.96;68.26;99124.44;5291069;27;20055;-67
2022/09/02 06:06:17;;;;;;;18.23;8.77;;;;;;;14.13;68.34;99124.47;5278237;27;20044;-66
2022/09/02 06:09:09;;;;;;;15.35;7.60;;;;;;;14.19;66.93;99126.50;5293530;27;20524;-67
2022/09/02 06:12:00;;;;;;;13.15;8.13;;;;;;;14.17;66.93;99121.34;5299777;27;20058;-67
2022/09/02 06:14:53;;;;;;;11.13;7.80;;;;;;;14.28;66.66;99128.19;5271879;28;20043;-67
2022/09/02 06:17:45;;;;;;;15.38;7.75;;;;;;;14.25;66.79;99120.50;5270397;28;20058;-68
2022/09/02 06:20:41;;;;;;;10.77;7.40;;;;;;;14.46;66.50;99131.53;5284286;28;20050;-67
2022/09/02 06:23:34;;;;;;;13.52;7.55;;;;;;;14.47;66.43;99122.53;5272750;28;20059;-67
2022/09/02 06:26:26;;;;;;;12.33;7.60;;;;;;;14.71;66.39;99124.41;5264409;28;20047;-67
2022/09/02 06:29:20;;;;;;;10.20;7.00;;;;;;;14.89;66.14;99118.06;5278390;28;20311;-67
2022/09/02 06:32:10;;;;;;;9.05;6.65;;;;;;;15.06;65.18;99110.84;5288919;28;20527;-67
2022/09/02 06:35:01;;;;;;;12.65;6.70;;;;;;;15.13;65.47;99115.38;5254950;28;20122;-66
2022/09/02 06:37:55;;;;;;;11.43;6.35;;;;;;;15.38;65.34;99117.97;5285874;28;20048;-67
2022/09/02 06:40:51;;;;;;;8.80;6.60;;;;;;;15.65;64.11;99122.88;5277188;28;20056;-67
2022/09/02 06:43:49;;;;;;;10.85;6.45;;;;;;;15.77;63.50;99119.88;5285060;28;20078;-67
2022/09/02 06:46:47;;;;;;;14.68;7.60;;;;;;;15.79;64.62;99124.00;5274679;28;20072;-67
2022/09/02 06:49:42;;;;;;;9.88;6.70;;;;;;;16.11;64.21;99112.31;5250339;28;20052;-67
2022/09/02 06:52:33;;;;;;;8.80;4.90;;;;;;;16.47;60.20;99114.44;5274162;28;20613;-67
2022/09/02 06:55:23;;;;;;;6.68;5.18;;;;;;;16.40;61.63;99122.34;5274474;28;20083;-67
2022/09/02 06:58:14;;;;;;;7.90;5.03;;;;;;;16.49;61.18;99124.94;5276172;28;20048;-67
2022/09/02 07:01:06;;;;;;;6.03;4.70;;;;;;;16.83;60.02;99117.34;5258282;28;20088;-67
2022/09/02 07:07:08;;;;;;;8.35;5.10;;;;;;;17.05;58.86;99099.56;5267574;28;20113;-67
2022/09/02 07:10:07;;;;;;;10.48;5.22;;;;;;;17.63;57.27;99106.97;5253244;28;20089;-67
2022/09/02 07:12:58;;;;;;;7.70;4.63;;;;;;;18.14;57.00;99118.53;5270153;28;20062;-67
2022/09/02 07:15:48;;;;;;;9.45;4.57;;;;;;;18.43;54.83;99104.19;5268083;28;20063;-67
2022/09/02 07:18:39;;;;;;;7.50;3.95;;;;;;;19.05;53.57;99110.75;5250448;28;20511;-67
2022/09/02 07:21:30;;;;;;;6.13;3.97;;;;;;;19.47;52.66;99085.59;5249422;28;20047;-68
2022/09/02 07:24:22;;;;;;;10.82;3.20;;;;;;;20.38;51.24;99092.53;5254048;28;20063;-68
2022/09/02 07:27:13;;;;;;;10.68;3.10;;;;;;;21.44;47.37;99099.81;5267800;28;20063;-68
2022/09/02 07:30:05;;;;;;;5.50;2.65;;;;;;;22.33;46.57;99085.53;5255361;28;20062;-68
2022/09/02 07:32:59;;;;;;;;;;;;;;;22.75;45.97;99094.81;5262626;28;20552;-68
2022/09/02 07:35:51;;;;;;;4.30;2.47;;;;;;;22.71;43.22;99081.94;5245894;28;19927;-68
2022/09/02 07:38:43;;;;;;;6.70;2.47;;;;;;;23.32;43.28;99083.91;5256218;28;20159;-68
2022/09/02 07:41:35;;;;;;;3.65;2.30;;;;;;;24.29;41.74;99088.56;5246384;28;20048;-68
2022/09/02 07:44:28;;;;;;;10.07;2.15;;;;;;;24.53;41.53;99070.50;5255080;28;20051;-68
2022/09/02 07:47:21;;;;;;;9.18;2.47;;;;;;;25.16;40.66;99080.72;5250985;28;20062;-68
2022/09/02 07:50:12;;;;;;;14.60;2.78;;;;;;;25.48;39.33;99083.06;5247163;28;20130;-69
2022/09/02 07:53:15;;;;;;;7.63;2.45;;;;;;;25.37;38.47;99081.22;5267262;28;20113;-68
2022/09/02 07:56:07;;;;;;;8.35;2.25;;;;;;;26.33;37.26;99079.63;5265532;28;20055;-70
2022/09/02 07:58:58;;;;;;;10.63;2.75;;;;;;;26.73;36.92;99073.28;5261125;28;20052;-68
2022/09/02 08:01:50;;;;;;;5.43;1.80;;;;;;;26.85;35.95;99073.16;5270144;28;20425;-69
2022/09/02 08:04:41;;;;;;;4.53;1.67;;;;;;;27.09;36.14;99077.38;5261603;28;20055;-68
2022/09/02 08:07:32;;;;;;;2.22;1.80;;;;;;;27.27;36.17;99079.00;5267236;28;20409;-68
2022/09/02 08:10:24;;;;;;;10.27;1.98;;;;;;;27.61;35.59;99059.84;5287823;28;20043;-68
2022/09/02 08:13:16;;;;;;;5.55;1.50;;;;;;;27.73;34.85;99060.56;5304877;22;20039;-70
2022/09/02 08:16:07;;;;;;;2.30;1.38;;;;;;;27.80;34.22;99076.75;5194067;28;20049;-70
2022/09/02 08:18:58;;;;;;;3.15;1.30;;;;;;;28.07;34.31;99071.31;5192648;28;20041;-69
2022/09/02 08:21:48;;;;;;;3.13;1.42;;;;;;;28.94;32.86;99067.50;5200793;28;20439;-69
2022/09/02 08:24:38;;;;;;;4.93;1.30;;;;;;;28.35;33.08;99070.25;5199272;28;20518;-69
2022/09/02 08:27:29;;;;;;;4.50;1.40;;;;;;;28.52;33.57;99067.44;5199371;28;20422;-69
2022/09/02 08:30:19;;;;;;;2.70;1.38;;;;;;;28.03;32.86;99065.56;5185198;28;20068;-69
2022/09/02 08:33:09;;;;;;;1.23;1.17;;;;;;;28.64;33.16;99067.25;5198423;28;20053;-68
2022/09/02 08:36:07;;;;;;;1.40;1.20;;;;;;;28.93;31.64;99056.84;5197403;28;20057;-70
2022/09/02 08:38:57;;;;;;;2.08;1.20;;;;;;;28.31;32.81;99058.19;5204210;28;20060;-68
2022/09/02 08:42:14;;;;;;;3.25;1.40;;;;;;;28.23;32.00;99055.94;5203024;28;20419;-69
2022/09/02 08:45:12;;;;;;;1.55;1.10;;;;;;;28.17;32.01;99055.06;5202328;28;20068;-69
2022/09/02 08:48:11;;;;;;;2.45;1.05;;;;;;;27.77;31.77;99063.63;5196788;28;20107;-70
2022/09/02 08:51:07;;;;;;;1.85;1.20;;;;;;;27.72;32.03;99056.19;5183415;28;20058;-72
2022/09/02 08:54:32;;;;;;;1.17;1.00;;;;;;;27.42;32.51;99056.63;5196770;28;20056;-72
2022/09/02 08:57:25;;;;;;;1.40;0.95;;;;;;;27.27;30.87;99054.50;5184133;28;20059;-72
2022/09/02 09:00:16;;;;;;;1.60;1.05;;;;;;;27.06;31.73;99042.50;5179171;28;20077;-72
2022/09/02 09:03:23;;;;;;;2.08;1.15;;;;;;;27.59;31.80;99040.22;5203185;28;20699;-72
2022/09/02 09:06:30;;;;;;;6.22;1.10;;;;;;;27.97;30.35;99047.50;5202033;28;20053;-72
2022/09/02 09:09:34;;;;;;;2.42;1.00;;;;;;;28.72;31.26;99036.78;5202427;28;20049;-72
2022/09/02 09:12:47;;;;;;;1.52;1.02;;;;;;;27.64;30.50;99049.25;5198957;28;20160;-71
2022/09/02 09:15:59;;;;;;;1.73;0.93;;;;;;;28.25;31.55;99034.72;5187337;28;20522;-72
2022/09/02 09:19:22;;;;;;;1.05;0.93;;;;;;;28.01;30.50;99035.03;5197433;28;20521;-70
2022/09/02 09:22:18;;;;;;;2.25;1.00;;;;;;;28.00;30.52;99035.28;5196268;28;20053;-72
2022/09/02 09:25:14;;;;;;;1.13;0.90;;;;;;;27.93;30.40;99026.47;5198050;28;20049;-70
2022/09/02 09:28:04;;;;;;;1.83;1.08;;;;;;;28.32;30.00;99018.97;5197918;28;20081;-70
2022/09/02 09:30:54;;;;;;;2.80;1.05;;;;;;;29.62;29.55;99020.41;5195044;28;20522;-71
2022/09/02 09:33:57;;;;;;;2.03;1.30;;;;;;;28.68;28.89;99014.66;5184492;28;20061;-71
2022/09/02 09:36:53;;;;;;;1.15;0.88;;;;;;;28.42;29.26;99016.34;5196629;28;20053;-71
2022/09/02 09:39:44;;;;;;;2.28;1.00;;;;;;;27.80;30.90;99011.34;5195872;28;20058;-70
2022/09/02 09:42:36;;;;;;;2.38;1.10;;;;;;;28.69;29.40;99007.28;5201316;28;20443;-71
2022/09/02 09:45:33;;;;;;;2.78;0.95;;;;;;;28.78;28.59;99005.72;5215703;28;20045;-71
2022/09/02 09:48:28;;;;;;;2.22;1.02;;;;;;;27.53;30.05;99019.44;5182751;28;20049;-71
2022/09/02 09:51:19;;;;;;;1.52;1.00;;;;;;;28.71;29.25;99005.09;5182176;28;20200;-70
2022/09/02 09:54:15;;;;;;;4.10;1.33;;;;;;;28.43;28.64;98996.16;5187715;28;20139;-70
2022/09/02 09:57:19;;;;;;;3.22;1.02;;;;;;;28.07;29.55;98997.72;5188889;28;20068;-71
2022/09/02 10:00:28;;;;;;;1.33;1.08;;;;;;;28.87;27.72;99000.56;5186231;28;20262;-71
2022/09/02 10:03:23;;;;;;;3.17;1.02;;;;;;;28.03;29.38;98993.88;5184016;28;20084;-69
2022/09/02 10:06:23;;;;;;;3.00;0.90;;;;;;;28.59;28.59;98999.84;5199397;28;20068;-67
2022/09/02 10:09:13;;;;;;;0.70;0.55;;;;;;;28.43;27.98;98989.91;5185926;28;20063;-71
2022/09/02 10:12:07;;;;;;;4.47;1.15;;;;;;;28.28;28.77;98993.31;5200159;28;20120;-68
2022/09/02 10:14:57;;;;;;;1.10;1.00;;;;;;;29.26;27.64;98988.25;5201215;28;20049;-73
2022/09/02 10:18:04;;;;;;;1.88;1.15;;;;;;;27.91;29.74;98972.22;5201379;28;20052;-70
2022/09/02 10:20:59;;;;;;;1.25;0.95;;;;;;;28.18;29.30;98977.69;5200382;28;20127;-69
2022/09/02 10:24:25;;;;;;;1.60;0.90;;;;;;;28.01;28.14;98957.88;5202232;28;20441;-70
2022/09/02 10:27:32;;;;;;;3.25;1.02;;;;;;;27.90;29.10;98973.31;5195984;28;20142;-70
2022/09/02 10:30:24;;;;;;;2.65;0.90;;;;;;;28.12;28.41;98984.16;5192516;28;20512;-70
2022/09/02 10:33:51;;;;;;;1.45;0.90;;;;;;;28.74;28.09;98964.50;5195139;28;20111;-69
2022/09/02 10:36:53;;;;;;;2.47;0.80;;;;;;;28.88;28.72;98966.75;5194395;28;20072;-70
2022/09/02 10:40:03;;;;;;;4.82;0.88;;;;;;;28.56;27.65;98962.16;5194472;28;20076;-70
2022/09/02 10:43:01;;;;;;;9.18;0.80;;;;;;;27.45;29.05;98957.25;5181615;28;20056;-69
2022/09/02 10:45:58;;;;;;;3.95;1.00;;;;;;;27.44;29.38;98955.63;5211324;28;20126;-71
2022/09/02 10:49:01;;;;;;;6.72;1.00;;;;;;;27.69;29.33;98957.81;5196568;28;20519;-71
2022/09/02 10:52:29;;;;;;;2.85;1.00;;;;;;;27.31;29.63;98957.63;5181885;28;20551;-70
2022/09/02 10:55:49;;;;;;;2.80;0.90;;;;;;;27.47;30.31;98955.94;5194084;28;20053;-70
2022/09/02 10:58:56;;;;;;;2.08;1.15;;;;;;;28.42;27.47;98941.91;5191321;28;20056;-72
2022/09/02 11:02:16;;;;;;;3.45;1.08;;;;;;;27.95;29.66;98935.22;5194910;28;20523;-71
2022/09/02 11:05:26;;;;;;;1.98;0.82;;;;;;;28.78;27.87;98924.66;5177677;28;20088;-70
2022/09/02 11:08:41;;;;;;;2.63;0.75;;;;;;;28.66;28.16;98926.78;5195674;28;20544;-69
2022/09/02 11:11:44;;;;;;;4.15;1.65;;;;;;;28.05;26.79;98907.22;5180307;28;20103;-72
2022/09/02 11:14:56;;;;;;;2.05;0.90;;;;;;;27.40;27.39;98923.44;5194410;28;20046;-72
2022/09/02 11:18:06;;;;;;;1.23;0.85;;;;;;;27.43;29.18;98913.94;5197493;28;20187;-71
2022/09/02 11:21:02;;;;;;;2.10;0.73;;;;;;;27.52;29.67;98909.72;5177020;28;20108;-70
2022/09/02 11:24:01;;;;;;;1.30;0.70;;;;;;;28.09;28.58;98906.44;5181292;28;20656;-69
2022/09/02 11:27:03;;;;;;;4.40;0.82;;;;;;;27.80;29.27;98910.53;5195270;28;20076;-75
2022/09/02 11:30:22;;;;;;;1.00;0.70;;;;;;;28.22;27.66;98891.56;5183176;28;20555;-70
2022/09/02 11:33:38;;;;;;;2.55;0.80;;;;;;;27.98;28.33;98904.72;5201402;28;20526;-71
2022/09/02 11:36:29;;;;;;;1.77;0.90;;;;;;;27.48;28.56;98900.38;5177402;28;20404;-72
2022/09/02 11:39:43;;;;;;;1.00;0.82;;;;;;;28.00;27.75;98899.81;5204956;28;20096;-71
2022/09/02 11:43:37;;;;;;;2.00;1.05;;;;;;;27.84;28.26;98895.31;5200618;28;20052;-71
2022/09/02 11:46:43;;;;;;;2.33;0.90;;;;;;;27.88;27.31;98893.72;5201857;28;20061;-71
2022/09/02 11:49:41;;;;;;;1.00;0.90;;;;;;;26.49;28.07;98895.88;5196333;28;20056;-70
2022/09/02 11:53:09;;;;;;;2.92;1.20;;;;;;;27.53;27.86;98892.28;5196529;28;20412;-70
2022/09/02 11:56:06;;;;;;;3.47;1.00;;;;;;;27.41;28.27;98891.59;5188484;28;20056;-72
2022/09/02 11:58:57;;;;;;;1.50;1.08;;;;;;;26.95;28.38;98896.47;5176305;28;20088;-70
2022/09/02 12:01:54;;;;;;;2.03;1.20;;;;;;;27.01;27.46;98886.47;5190747;28;20052;-69
2022/09/02 12:04:45;;;;;;;5.50;0.90;;;;;;;27.13;28.66;98889.94;5204670;28;20521;-70
2022/09/02 12:07:50;;;;;;;1.30;0.88;;;;;;;26.98;28.45;98892.44;5196442;28;20077;-69
2022/09/02 12:10:44;;;;;;;2.53;0.90;;;;;;;26.74;29.31;98886.41;5204362;28;20172;-69
2022/09/02 12:13:36;;;;;;;1.77;0.93;;;;;;;27.37;28.15;98885.03;5188450;28;20483;-69
2022/09/02 12:16:26;;;;;;;1.58;1.25;;;;;;;27.15;28.18;98882.31;5204488;28;20466;-69
2022/09/02 12:19:26;;;;;;;0.93;0.80;;;;;;;26.71;27.80;98876.84;5204547;28;20202;-70
2022/09/02 12:22:16;;;;;;;1.75;0.68;;;;;;;26.37;28.83;98881.53;5203049;28;20049;-69
2022/09/02 12:25:23;;;;;;;1.50;0.98;;;;;;;26.38;29.37;98878.53;5175660;28;20136;-69
2022/09/02 12:28:24;;;;;;;1.08;0.65;;;;;;;26.82;29.01;98875.09;5203630;28;20135;-69
2022/09/02 12:31:19;;;;;;;2.80;0.70;;;;;;;26.57;27.83;98886.47;5188369;28;20139;-69
2022/09/02 12:34:24;;;;;;;1.00;0.82;;;;;;;26.68;28.56;98877.34;5194137;28;20101;-69
2022/09/02 12:37:49;;;;;;;5.03;0.80;;;;;;;27.01;27.39;98873.69;5203943;28;20055;-69
2022/09/02 12:41:04;;;;;;;2.60;1.00;;;;;;;26.58;27.87;98866.34;5185673;28;20538;-69
2022/09/02 12:44:10;;;;;;;1.05;0.95;;;;;;;26.76;27.23;98859.78;5186820;28;20056;-69
2022/09/02 12:47:07;;;;;;;1.48;0.98;;;;;;;26.57;28.18;98853.84;5203898;28;20072;-69
2022/09/02 12:50:06;;;;;;;0.98;0.65;;;;;;;26.42;28.17;98852.53;5204562;28;20557;-69
2022/09/02 12:53:19;;;;;;;1.15;0.80;;;;;;;26.97;28.70;98858.13;5203030;28;20045;-69
2022/09/02 12:56:22;;;;;;;1.05;0.70;;;;;;;26.54;27.43;98849.72;5203302;28;20188;-69
2022/09/02 12:59:27;;;;;;;0.93;0.77;;;;;;;26.87;27.29;98847.97;5203554;28;20052;-69
2022/09/02 13:02:31;;;;;;;1.08;0.93;;;;;;;26.74;26.82;98837.47;5202496;28;20050;-69
2022/09/02 13:05:32;;;;;;;3.33;0.70;;;;;;;26.31;27.97;98841.75;5188327;28;20046;-70
2022/09/02 13:08:42;;;;;;;1.65;0.80;;;;;;;26.17;28.19;98833.94;5203340;28;20060;-68
2022/09/02 13:11:57;;;;;;;0.82;0.82;;;;;;;26.64;27.41;98830.81;5201248;28;20064;-68
2022/09/02 13:15:05;;;;;;;1.75;0.98;;;;;;;26.85;28.10;98834.59;5201438;28;20046;-68
2022/09/02 13:18:14;;;;;;;0.70;0.70;;;;;;;26.75;27.08;98828.22;5203194;28;20049;-68
2022/09/02 13:21:26;;;;;;;5.45;0.90;;;;;;;25.87;27.77;98798.16;5202220;28;20049;-68
2022/09/02 13:24:39;;;;;;;0.50;0.50;;;;;;;26.18;28.39;98827.44;5203437;28;20041;-68
2022/09/02 13:27:46;;;;;;;2.67;0.90;;;;;;;26.52;27.71;98818.41;5203115;28;20104;-68
2022/09/02 13:30:59;;;;;;;0.95;0.80;;;;;;;26.30;28.43;98805.59;5188859;28;20124;-68
2022/09/02 13:34:02;;;;;;;4.18;0.80;;;;;;;26.05;28.56;98795.16;5202740;28;20622;-68
2022/09/02 13:36:55;;;;;;;3.70;0.90;;;;;;;26.34;28.13;98795.03;5202474;28;20053;-68
2022/09/02 13:39:45;;;;;;;1.38;0.77;;;;;;;26.50;28.52;98777.88;5203342;28;20059;-68
2022/09/02 13:42:35;;;;;;;2.15;0.85;;;;;;;26.39;27.64;98790.50;5199202;28;20075;-68
2022/09/02 13:45:33;;;;;;;1.55;1.00;;;;;;;26.90;27.42;98798.47;5202619;28;20693;-68
2022/09/02 13:48:27;;;;;;;1.38;0.75;;;;;;;26.91;26.89;98791.94;5202867;28;20499;-68
2022/09/02 13:51:17;;;;;;;1.35;0.90;;;;;;;27.02;26.97;98785.56;5187162;28;20418;-68
2022/09/02 13:54:07;;;;;;;1.52;0.82;;;;;;;26.75;28.03;98782.78;5192068;28;20423;-68